EFW9273 EGKK-EGLL
Flight info
| Callsign | EFW9273 |
|---|---|
| Flight time | 0h 12m |
| Altitude | 9000 |
| Route | ACORN/N0278F080 DCT BIG |
| Aircraft | A321/M-SDE3FGHIRWY/LB1 |
Departure
| Time | 2026-04-17 22:22 |
|---|---|
| Airport | London Gatwick Airport (EGKK) |
Arrival
| Time | 2026-04-17 22:34 |
|---|---|
| Airport | London Heathrow Airport (EGLL) |
| Time | Latitude | Longitude | Altitude | Speed | Heading |
|---|---|---|---|---|---|
| 2026-04-17 22:03 | 51.15375 | -0.18616 | 205 ft | 0 kts | 77° |
| 2026-04-17 22:10 | 51.15373 | -0.18633 | 215 ft | 2 kts | 78° |
| 2026-04-17 22:10 | 51.15370 | -0.18659 | 217 ft | 2 kts | 75° |
| 2026-04-17 22:11 | 51.15366 | -0.18684 | 211 ft | 2 kts | 79° |
| 2026-04-17 22:11 | 51.15363 | -0.18710 | 213 ft | 2 kts | 77° |
| 2026-04-17 22:11 | 51.15361 | -0.18736 | 214 ft | 2 kts | 107° |
| 2026-04-17 22:11 | 51.15368 | -0.18760 | 211 ft | 2 kts | 138° |
| 2026-04-17 22:12 | 51.15379 | -0.18773 | 215 ft | 1 kts | 168° |
| 2026-04-17 22:12 | 51.15380 | -0.18773 | 215 ft | 0 kts | 168° |
| 2026-04-17 22:14 | 51.15371 | -0.18771 | 211 ft | 4 kts | 168° |
| 2026-04-17 22:15 | 51.15322 | -0.18753 | 215 ft | 10 kts | 168° |
| 2026-04-17 22:15 | 51.15231 | -0.18722 | 208 ft | 15 kts | 168° |
| 2026-04-17 22:15 | 51.15148 | -0.18678 | 212 ft | 9 kts | 127° |
| 2026-04-17 22:15 | 51.15154 | -0.18565 | 205 ft | 12 kts | 79° |
| 2026-04-17 22:16 | 51.15173 | -0.18419 | 215 ft | 14 kts | 77° |
| 2026-04-17 22:16 | 51.15191 | -0.18254 | 214 ft | 16 kts | 79° |
| 2026-04-17 22:16 | 51.15215 | -0.18074 | 205 ft | 17 kts | 78° |
| 2026-04-17 22:16 | 51.15242 | -0.17878 | 205 ft | 19 kts | 77° |
| 2026-04-17 22:17 | 51.15272 | -0.17666 | 205 ft | 20 kts | 77° |
| 2026-04-17 22:17 | 51.15293 | -0.17509 | 209 ft | 8 kts | 78° |
| 2026-04-17 22:17 | 51.15298 | -0.17450 | 205 ft | 0 kts | 79° |
| 2026-04-17 22:17 | 51.15300 | -0.17434 | 210 ft | 3 kts | 81° |
| 2026-04-17 22:18 | 51.15303 | -0.17389 | 215 ft | 5 kts | 90° |
| 2026-04-17 22:18 | 51.15270 | -0.17345 | 217 ft | 10 kts | 149° |
| 2026-04-17 22:18 | 51.15208 | -0.17276 | 211 ft | 12 kts | 142° |
| 2026-04-17 22:18 | 51.15191 | -0.17133 | 210 ft | 17 kts | 77° |
| 2026-04-17 22:19 | 51.15217 | -0.16945 | 215 ft | 10 kts | 77° |
| 2026-04-17 22:19 | 51.15218 | -0.16940 | 213 ft | 0 kts | 77° |
| 2026-04-17 22:19 | 51.15221 | -0.16921 | 211 ft | 5 kts | 77° |
| 2026-04-17 22:20 | 51.15228 | -0.16855 | 212 ft | 6 kts | 92° |
| 2026-04-17 22:20 | 51.15179 | -0.16801 | 216 ft | 11 kts | 160° |
| 2026-04-17 22:20 | 51.15118 | -0.16858 | 211 ft | 12 kts | 245° |
| 2026-04-17 22:20 | 51.15113 | -0.16879 | 217 ft | 0 kts | 254° |
| 2026-04-17 22:21 | 51.15112 | -0.16885 | 216 ft | 3 kts | 255° |
| 2026-04-17 22:21 | 51.15071 | -0.17173 | 216 ft | 65 kts | 258° |
| 2026-04-17 22:21 | 51.14922 | -0.18264 | 208 ft | 134 kts | 257° |
| 2026-04-17 22:21 | 51.14689 | -0.19897 | 631 ft | 152 kts | 253° |
| 2026-04-17 22:22 | 51.14511 | -0.21544 | 1440 ft | 151 kts | 257° |
| 2026-04-17 22:22 | 51.14418 | -0.23336 | 1835 ft | 175 kts | 266° |
| 2026-04-17 22:22 | 51.14837 | -0.25276 | 2164 ft | 207 kts | 301° |
| 2026-04-17 22:22 | 51.16078 | -0.26762 | 2396 ft | 245 kts | 335° |
| 2026-04-17 22:23 | 51.17854 | -0.27075 | 2856 ft | 270 kts | 6° |
| 2026-04-17 22:23 | 51.19632 | -0.25957 | 3582 ft | 284 kts | 33° |
| 2026-04-17 22:23 | 51.20996 | -0.23665 | 3899 ft | 288 kts | 60° |
| 2026-04-17 22:23 | 51.21742 | -0.20684 | 3997 ft | 286 kts | 75° |
| 2026-04-17 22:24 | 51.22293 | -0.17687 | 4008 ft | 285 kts | 76° |
| 2026-04-17 22:24 | 51.22831 | -0.14637 | 4009 ft | 285 kts | 76° |
| 2026-04-17 22:24 | 51.23368 | -0.11587 | 4009 ft | 285 kts | 77° |
| 2026-04-17 22:24 | 51.23910 | -0.08545 | 4008 ft | 285 kts | 76° |
| 2026-04-17 22:25 | 51.24448 | -0.05493 | 4011 ft | 285 kts | 76° |
| 2026-04-17 22:25 | 51.24979 | -0.02442 | 4040 ft | 287 kts | 76° |
| 2026-04-17 22:25 | 51.25600 | 0.00598 | 4750 ft | 289 kts | 63° |
| 2026-04-17 22:25 | 51.26852 | 0.03100 | 5510 ft | 292 kts | 37° |
| 2026-04-17 22:26 | 51.28632 | 0.04570 | 5784 ft | 286 kts | 10° |
| 2026-04-17 22:26 | 51.30580 | 0.05047 | 5872 ft | 283 kts | 2° |
| 2026-04-17 22:26 | 51.32539 | 0.05341 | 5892 ft | 282 kts | 1° |
| 2026-04-17 22:26 | 51.34499 | 0.05614 | 6017 ft | 282 kts | 1° |
| 2026-04-17 22:27 | 51.36446 | 0.05719 | 6020 ft | 276 kts | 348° |
| 2026-04-17 22:27 | 51.38253 | 0.04821 | 5857 ft | 270 kts | 333° |
| 2026-04-17 22:27 | 51.39965 | 0.03612 | 5462 ft | 267 kts | 328° |
| 2026-04-17 22:27 | 51.41539 | 0.02085 | 5089 ft | 263 kts | 322° |
| 2026-04-17 22:28 | 51.43050 | 0.00474 | 4811 ft | 258 kts | 321° |
| 2026-04-17 22:28 | 51.44511 | -0.01093 | 4662 ft | 248 kts | 321° |
| 2026-04-17 22:28 | 51.45922 | -0.02604 | 4526 ft | 239 kts | 318° |
| 2026-04-17 22:28 | 51.47020 | -0.04405 | 4481 ft | 213 kts | 298° |
| 2026-04-17 22:29 | 51.47628 | -0.06437 | 4464 ft | 196 kts | 281° |
| 2026-04-17 22:29 | 51.47809 | -0.08529 | 4316 ft | 190 kts | 265° |
| 2026-04-17 22:29 | 51.47807 | -0.10640 | 4091 ft | 188 kts | 266° |
| 2026-04-17 22:29 | 51.47808 | -0.12727 | 3845 ft | 186 kts | 265° |
| 2026-04-17 22:30 | 51.47808 | -0.14802 | 3597 ft | 186 kts | 265° |
| 2026-04-17 22:30 | 51.47807 | -0.16870 | 3350 ft | 185 kts | 265° |
| 2026-04-17 22:30 | 51.47804 | -0.20150 | 2956 ft | 188 kts | 265° |
| 2026-04-17 22:30 | 51.47801 | -0.24350 | 2467 ft | 190 kts | 265° |
| 2026-04-17 22:31 | 51.47798 | -0.26716 | 2174 ft | 189 kts | 265° |
| 2026-04-17 22:31 | 51.47797 | -0.28781 | 1925 ft | 182 kts | 265° |
| 2026-04-17 22:31 | 51.47795 | -0.30734 | 1673 ft | 168 kts | 264° |
| 2026-04-17 22:31 | 51.47793 | -0.32507 | 1460 ft | 151 kts | 264° |
| 2026-04-17 22:32 | 51.47789 | -0.34154 | 1257 ft | 146 kts | 264° |
| 2026-04-17 22:32 | 51.47785 | -0.35762 | 1066 ft | 143 kts | 262° |
| 2026-04-17 22:32 | 51.47777 | -0.37353 | 848 ft | 142 kts | 262° |
| 2026-04-17 22:32 | 51.47783 | -0.38919 | 722 ft | 143 kts | 263° |
| 2026-04-17 22:33 | 51.47780 | -0.40511 | 530 ft | 142 kts | 259° |
| 2026-04-17 22:33 | 51.47770 | -0.42103 | 314 ft | 144 kts | 262° |
| 2026-04-17 22:33 | 51.47767 | -0.43701 | 117 ft | 143 kts | 262° |
| 2026-04-17 22:33 | 51.47759 | -0.45166 | 90 ft | 116 kts | 271° |
| 2026-04-17 22:34 | 51.47758 | -0.46257 | 89 ft | 86 kts | 270° |
| 2026-04-17 22:34 | 51.47757 | -0.47102 | 91 ft | 65 kts | 269° |
| 2026-04-17 22:34 | 51.47752 | -0.47740 | 85 ft | 50 kts | 269° |
| 2026-04-17 22:34 | 51.47752 | -0.48054 | 88 ft | 2 kts | 270° |
| 2026-04-17 22:35 | 51.47741 | -0.48134 | 88 ft | 11 kts | 244° |
| 2026-04-17 22:35 | 51.47692 | -0.48156 | 89 ft | 9 kts | 175° |
| 2026-04-17 22:35 | 51.47619 | -0.48154 | 87 ft | 12 kts | 187° |
| 2026-04-17 22:35 | 51.47579 | -0.48252 | 90 ft | 13 kts | 268° |
| 2026-04-17 22:36 | 51.47578 | -0.48425 | 90 ft | 9 kts | 269° |
| 2026-04-17 22:36 | 51.47555 | -0.48473 | 91 ft | 5 kts | 190° |
| 2026-04-17 22:36 | 51.47499 | -0.48476 | 86 ft | 14 kts | 180° |
| 2026-04-17 22:36 | 51.47391 | -0.48474 | 86 ft | 16 kts | 180° |
| 2026-04-17 22:37 | 51.47282 | -0.48474 | 86 ft | 7 kts | 180° |
| 2026-04-17 22:37 | 51.47272 | -0.48489 | 86 ft | 3 kts | 250° |
| 2026-04-17 22:37 | 51.47271 | -0.48545 | 89 ft | 6 kts | 266° |
| 2026-04-17 22:37 | 51.47271 | -0.48580 | 87 ft | 0 kts | 270° |